createdAt,value
2017-09-04T00:00:35.888Z,89.25
2017-09-04T00:02:28.899Z,89.25
2017-09-04T00:03:28.949Z,88.78
2017-09-04T00:05:21.932Z,88.11
2017-09-04T00:06:22.002Z,88.11
2017-09-04T00:08:15.009Z,87.63
2017-09-04T00:09:15.046Z,87.35
2017-09-04T00:11:08.564Z,87.35
2017-09-04T00:12:08.606Z,87.15
2017-09-04T00:14:01.598Z,87.73
2017-09-04T00:15:01.661Z,87.82
2017-09-04T00:16:54.671Z,87.82
2017-09-04T00:17:54.713Z,87.92
2017-09-04T00:19:47.707Z,87.63
2017-09-04T00:20:47.767Z,88.11
2017-09-04T00:22:40.775Z,88.49
2017-09-04T00:23:40.821Z,88.68
2017-09-04T00:25:33.848Z,88.68
2017-09-04T00:26:33.881Z,88.54
2017-09-04T00:28:26.871Z,88.49
2017-09-04T00:29:26.934Z,88.49
2017-09-04T00:31:19.949Z,88.54
2017-09-04T00:32:19.994Z,88.83
2017-09-04T00:34:12.987Z,89.21
2017-09-04T00:35:13.051Z,89.40
2017-09-04T00:37:06.063Z,89.50
2017-09-04T00:38:06.107Z,89.69
2017-09-04T00:39:59.099Z,89.69
2017-09-04T00:40:59.159Z,89.69
2017-09-04T00:42:52.168Z,89.78
2017-09-04T00:43:52.212Z,89.97
2017-09-04T00:45:45.221Z,89.31
2017-09-04T00:46:45.263Z,88.73
2017-09-04T00:48:38.254Z,89.31
2017-09-04T00:49:38.315Z,88.92
2017-09-04T00:51:31.327Z,88.45
2017-09-04T00:52:31.368Z,88.45
2017-09-04T00:54:24.359Z,88.59
2017-09-04T00:55:24.422Z,88.78
2017-09-04T00:57:17.431Z,88.64
2017-09-04T00:58:17.474Z,88.64
2017-09-04T01:00:10.465Z,88.45
2017-09-04T01:01:10.526Z,88.45
2017-09-04T01:03:03.539Z,88.45
2017-09-04T01:04:03.580Z,88.35
2017-09-04T01:05:56.592Z,87.78
2017-09-04T01:06:56.634Z,87.97
2017-09-04T01:08:49.629Z,88.54
2017-09-04T01:09:49.688Z,88.64
2017-09-04T01:11:42.700Z,89.50
2017-09-04T01:12:42.740Z,88.83
2017-09-04T01:14:35.731Z,88.35
2017-09-04T01:15:35.793Z,88.64
2017-09-04T01:17:28.803Z,88.26
2017-09-04T01:18:28.846Z,88.64
2017-09-04T01:20:21.835Z,88.54
2017-09-04T01:21:21.895Z,88.26
2017-09-04T01:23:14.906Z,88.16
2017-09-04T01:24:14.947Z,88.45
2017-09-04T01:26:07.956Z,88.83
2017-09-04T01:27:07.999Z,88.45
2017-09-04T01:29:00.989Z,88.26
2017-09-04T01:30:01.053Z,88.45
2017-09-04T01:31:54.062Z,89.45
2017-09-04T01:32:54.105Z,89.12
2017-09-04T01:34:47.097Z,89.40
2017-09-04T01:35:47.157Z,89.12
2017-09-04T01:37:40.192Z,88.83
2017-09-04T01:38:40.209Z,88.98
2017-09-04T01:40:33.199Z,88.92
2017-09-04T01:41:33.263Z,88.98
2017-09-04T01:43:26.273Z,89.12
2017-09-04T01:44:26.321Z,88.92
2017-09-04T01:46:19.332Z,88.64
2017-09-04T01:47:19.377Z,88.26
2017-09-04T01:49:12.372Z,88.64
2017-09-04T01:50:12.436Z,88.45
2017-09-04T01:52:05.452Z,88.50
2017-09-04T01:53:05.495Z,88.98
2017-09-04T01:54:58.487Z,88.98
2017-09-04T01:55:58.548Z,88.98
2017-09-04T01:57:51.565Z,89.45
2017-09-04T01:58:51.604Z,89.26
2017-09-04T02:00:44.605Z,89.36
2017-09-04T02:01:44.685Z,89.36
2017-09-04T02:03:37.680Z,89.93
2017-09-04T02:04:37.724Z,89.74
2017-09-04T02:06:30.733Z,89.74
2017-09-04T02:07:30.775Z,89.54
2017-09-04T02:09:23.766Z,89.83
2017-09-04T02:10:23.827Z,89.26
2017-09-04T02:12:16.834Z,89.64
2017-09-04T02:13:16.877Z,90.41
2017-09-04T02:15:09.869Z,90.50
2017-09-04T02:16:09.933Z,90.41
2017-09-04T02:18:02.941Z,89.54
2017-09-04T02:19:02.983Z,89.74
2017-09-04T02:20:55.973Z,89.54
2017-09-04T02:21:56.033Z,89.54
2017-09-04T02:23:49.042Z,89.26
2017-09-04T02:24:49.084Z,89.26
2017-09-04T02:26:42.094Z,89.07
2017-09-04T02:27:42.135Z,90.12
2017-09-04T02:29:35.125Z,90.41
2017-09-04T02:30:35.186Z,90.22
2017-09-04T02:32:28.195Z,90.12
2017-09-04T02:33:28.236Z,90.41
2017-09-04T02:35:21.225Z,90.12
2017-09-04T02:36:21.288Z,89.54
2017-09-04T02:38:14.300Z,89.26
2017-09-04T02:39:14.342Z,89.17
2017-09-04T02:41:07.327Z,89.36
2017-09-04T02:42:07.389Z,89.17
2017-09-04T02:44:00.396Z,90.03
2017-09-04T02:45:00.438Z,90.22
2017-09-04T02:46:53.450Z,90.22
2017-09-04T02:47:53.486Z,90.22
2017-09-04T02:49:46.481Z,90.22
2017-09-04T02:50:46.544Z,90.22
2017-09-04T02:52:39.551Z,89.54
2017-09-04T02:53:39.602Z,89.83
2017-09-04T02:55:32.586Z,90.22
2017-09-04T02:56:32.649Z,89.74
2017-09-04T02:58:25.665Z,90.22
2017-09-04T02:59:25.707Z,89.98
2017-09-04T03:01:18.720Z,90.50
2017-09-04T03:02:18.783Z,90.03
2017-09-04T03:04:11.789Z,90.12
2017-09-04T03:05:11.832Z,90.31
2017-09-04T03:07:04.840Z,90.31
2017-09-04T03:08:04.879Z,90.59
2017-09-04T03:09:57.873Z,90.36
2017-09-04T03:10:57.936Z,90.50
2017-09-04T03:12:50.948Z,91.13
2017-09-04T03:13:50.990Z,90.45
2017-09-04T03:15:43.980Z,91.13
2017-09-04T03:16:44.040Z,90.84
2017-09-04T03:18:37.050Z,91.88
2017-09-04T03:19:37.088Z,92.08
2017-09-04T03:21:30.078Z,92.27
2017-09-04T03:22:30.140Z,91.88
2017-09-04T03:24:23.147Z,92.27
2017-09-04T03:25:23.187Z,92.08
2017-09-04T03:27:16.197Z,92.55
2017-09-04T03:28:16.239Z,92.36
2017-09-04T03:30:09.230Z,92.46
2017-09-04T03:31:09.290Z,92.93
2017-09-04T03:33:02.299Z,91.88
2017-09-04T03:34:02.341Z,91.88
2017-09-04T03:35:55.329Z,91.69
2017-09-04T03:36:55.392Z,91.79
2017-09-04T03:38:48.401Z,91.13
2017-09-04T03:39:48.438Z,91.03
2017-09-04T03:41:41.427Z,91.41
2017-09-04T03:42:41.747Z,91.31
2017-09-04T03:44:34.493Z,91.13
2017-09-04T03:45:34.535Z,91.03
2017-09-04T03:47:27.540Z,90.36
2017-09-04T03:48:27.594Z,90.36
2017-09-04T03:50:20.571Z,91.13
2017-09-04T03:51:20.632Z,91.13
2017-09-04T03:53:13.646Z,91.27
2017-09-04T03:54:13.687Z,91.98
2017-09-04T03:56:06.686Z,91.27
2017-09-04T03:57:06.738Z,91.98
2017-09-04T03:59:00.267Z,91.03
2017-09-04T04:00:00.293Z,91.31
2017-09-04T04:01:53.281Z,91.50
2017-09-04T04:02:53.339Z,92.08
2017-09-04T04:04:46.346Z,91.94
2017-09-04T04:05:46.387Z,91.55
2017-09-04T04:07:39.396Z,91.08
2017-09-04T04:08:39.435Z,90.89
2017-09-04T04:10:32.424Z,91.74
2017-09-04T04:11:32.486Z,92.13
2017-09-04T04:13:25.491Z,91.98
2017-09-04T04:14:25.532Z,91.27
2017-09-04T04:16:18.520Z,91.60
2017-09-04T04:17:18.581Z,91.46
2017-09-04T04:19:11.596Z,90.93
2017-09-04T04:20:11.629Z,91.46
2017-09-04T04:22:04.617Z,91.27
2017-09-04T04:23:04.677Z,91.46
2017-09-04T04:24:57.689Z,91.36
2017-09-04T04:25:57.732Z,91.36
2017-09-04T04:27:50.744Z,92.03
2017-09-04T04:28:50.786Z,92.03
2017-09-04T04:30:43.779Z,91.69
2017-09-04T04:31:43.842Z,91.65
2017-09-04T04:33:36.853Z,91.46
2017-09-04T04:34:36.893Z,91.94
2017-09-04T04:36:29.882Z,91.31
2017-09-04T04:37:29.940Z,91.84
2017-09-04T04:39:22.948Z,91.27
2017-09-04T04:40:22.993Z,91.27
2017-09-04T04:42:15.977Z,90.89
2017-09-04T04:43:16.037Z,90.60
2017-09-04T04:45:09.045Z,92.32
2017-09-04T04:46:09.087Z,92.03
2017-09-04T04:48:02.094Z,92.41
2017-09-04T04:49:02.135Z,92.13
2017-09-04T04:50:55.124Z,92.22
2017-09-04T04:51:55.188Z,91.84
2017-09-04T04:53:48.194Z,91.13
2017-09-04T04:54:48.234Z,90.60
2017-09-04T04:56:41.225Z,90.79
2017-09-04T04:57:41.282Z,90.70
2017-09-04T04:59:34.289Z,90.93
2017-09-04T05:00:34.329Z,90.89
2017-09-04T05:02:27.318Z,90.36
2017-09-04T05:03:27.376Z,91.13
2017-09-04T05:05:20.399Z,90.84
2017-09-04T05:06:20.426Z,91.41
2017-09-04T05:08:13.437Z,91.03
2017-09-04T05:09:13.477Z,91.79
2017-09-04T05:11:06.461Z,90.55
2017-09-04T05:12:06.524Z,89.98
2017-09-04T05:13:59.529Z,90.17
2017-09-04T05:14:59.572Z,90.45
2017-09-04T05:16:52.561Z,89.98
2017-09-04T05:17:52.622Z,90.93
2017-09-04T05:19:45.629Z,90.08
2017-09-04T05:20:45.672Z,90.22
2017-09-04T05:22:38.657Z,89.83
2017-09-04T05:23:38.718Z,90.12
2017-09-04T05:25:31.731Z,90.22
2017-09-04T05:26:31.772Z,90.41
2017-09-04T05:28:24.775Z,89.74
2017-09-04T05:29:24.821Z,90.22
2017-09-04T05:31:17.802Z,90.22
2017-09-04T05:32:17.865Z,90.31
2017-09-04T05:34:10.871Z,90.31
2017-09-04T05:35:10.913Z,90.22
2017-09-04T05:37:03.903Z,90.22
2017-09-04T05:38:03.963Z,89.83
2017-09-04T05:39:56.968Z,89.83
2017-09-04T05:40:57.009Z,89.64
2017-09-04T05:42:49.998Z,89.88
2017-09-04T05:43:50.060Z,90.12
2017-09-04T05:45:43.069Z,89.78
2017-09-04T05:46:43.118Z,89.50
2017-09-04T05:48:36.120Z,88.92
2017-09-04T05:49:36.162Z,88.92
2017-09-04T05:51:29.165Z,89.21
2017-09-04T05:52:29.213Z,89.31
2017-09-04T05:54:22.224Z,89.31
2017-09-04T05:55:22.266Z,89.50
2017-09-04T05:57:15.253Z,90.17
2017-09-04T05:58:15.316Z,89.97
2017-09-04T06:00:08.327Z,89.88
2017-09-04T06:01:08.370Z,90.26
2017-09-04T06:03:01.358Z,89.88
2017-09-04T06:04:01.419Z,88.97
2017-09-04T06:05:54.427Z,88.49
2017-09-04T06:06:54.468Z,87.73
2017-09-04T06:08:47.491Z,87.54
2017-09-04T06:09:47.532Z,87.06
2017-09-04T06:11:40.523Z,87.29
2017-09-04T06:12:40.583Z,86.53
2017-09-04T06:14:33.593Z,85.96
2017-09-04T06:15:33.632Z,85.10
2017-09-04T06:17:26.627Z,85.52
2017-09-04T06:18:26.682Z,85.42
2017-09-04T06:20:19.690Z,84.47
2017-09-04T06:21:19.733Z,84.66
2017-09-04T06:23:12.726Z,83.51
2017-09-04T06:24:12.784Z,83.46
2017-09-04T06:26:05.796Z,84.47
2017-09-04T06:27:05.836Z,84.47
2017-09-04T06:28:58.875Z,84.85
2017-09-04T06:29:58.892Z,85.42
2017-09-04T06:31:51.877Z,85.05
2017-09-04T06:32:51.941Z,85.52
2017-09-04T06:34:44.958Z,85.52
2017-09-04T06:35:45.000Z,84.70
2017-09-04T06:37:37.994Z,83.84
2017-09-04T06:38:38.058Z,83.46
2017-09-04T06:40:31.068Z,79.18
2017-09-04T06:41:31.113Z,77.02
2017-09-04T06:43:24.109Z,71.03
2017-09-04T06:44:24.172Z,67.61
2017-09-04T06:46:17.183Z,64.31
2017-09-04T06:47:17.229Z,63.54
2017-09-04T06:49:10.247Z,62.23
2017-09-04T06:50:10.291Z,60.97
2017-09-04T06:52:03.285Z,61.65
2017-09-04T06:53:03.348Z,60.59
2017-09-04T06:54:56.362Z,59.47
2017-09-04T06:55:56.439Z,59.01
2017-09-04T06:57:49.402Z,58.56
2017-09-04T06:58:49.469Z,58.37
2017-09-04T07:00:42.482Z,55.34
2017-09-04T07:01:42.530Z,55.18
2017-09-04T07:03:35.525Z,53.01
2017-09-04T07:04:35.592Z,51.59
2017-09-04T07:06:28.609Z,48.93
2017-09-04T07:07:28.656Z,48.81
2017-09-04T07:09:21.680Z,48.06
2017-09-04T07:10:21.726Z,47.99
2017-09-04T07:12:14.728Z,46.75
2017-09-04T07:13:14.798Z,45.42
2017-09-04T07:15:07.822Z,46.25
2017-09-04T07:16:07.871Z,46.63
2017-09-04T07:18:00.871Z,48.39
2017-09-04T07:19:00.943Z,49.37
2017-09-04T07:20:53.964Z,51.27
2017-09-04T07:21:54.013Z,50.33
2017-09-04T07:23:47.017Z,48.61
2017-09-04T07:24:47.087Z,48.25
2017-09-04T07:26:40.111Z,45.13
2017-09-04T07:27:40.160Z,45.22
2017-09-04T07:29:33.182Z,43.99
2017-09-04T07:30:33.234Z,43.33
2017-09-04T07:32:26.236Z,41.14
2017-09-04T07:33:26.307Z,40.85
2017-09-04T07:35:19.337Z,40.01
2017-09-04T07:36:19.387Z,38.85
2017-09-04T07:38:12.395Z,39.16
2017-09-04T07:39:12.464Z,37.84
2017-09-04T07:41:05.494Z,36.40
2017-09-04T07:42:05.545Z,36.20
2017-09-04T07:43:58.553Z,36.18
2017-09-04T07:44:58.624Z,35.61
2017-09-04T07:46:51.653Z,36.08
2017-09-04T07:47:51.705Z,35.91
2017-09-04T07:49:44.741Z,37.16
2017-09-04T07:50:44.788Z,38.64
2017-09-04T07:52:37.813Z,38.77
2017-09-04T07:53:37.872Z,38.11
2017-09-04T07:55:30.906Z,37.18
2017-09-04T07:56:30.959Z,36.12
2017-09-04T07:58:24.478Z,35.75
2017-09-04T07:59:24.552Z,35.63
2017-09-04T08:01:17.580Z,35.65
2017-09-04T08:02:17.639Z,34.89
2017-09-04T08:04:10.645Z,33.82
2017-09-04T08:05:10.720Z,34.32
2017-09-04T08:07:03.753Z,32.97
2017-09-04T08:08:03.805Z,32.78
2017-09-04T08:09:56.853Z,33.38
2017-09-04T08:10:56.910Z,32.99
2017-09-04T08:12:49.919Z,32.70
2017-09-04T08:13:49.994Z,33.33
2017-09-04T08:15:43.028Z,33.36
2017-09-04T08:16:43.083Z,33.43
2017-09-04T08:18:36.097Z,33.44
2017-09-04T08:19:36.172Z,32.78
2017-09-04T08:21:29.206Z,32.58
2017-09-04T08:22:29.263Z,33.34
2017-09-04T08:24:22.279Z,33.58
2017-09-04T08:25:22.355Z,33.75
2017-09-04T08:27:15.394Z,35.46
2017-09-04T08:28:15.448Z,35.38
2017-09-04T08:30:08.483Z,34.00
2017-09-04T08:31:08.539Z,34.21
2017-09-04T08:33:01.556Z,35.18
2017-09-04T08:34:01.632Z,34.89
2017-09-04T08:35:54.668Z,33.93
2017-09-04T08:36:54.722Z,34.31
2017-09-04T08:38:47.737Z,35.75
2017-09-04T08:39:47.814Z,35.94
2017-09-04T08:41:40.850Z,34.86
2017-09-04T08:42:40.905Z,34.58
2017-09-04T08:44:33.919Z,34.31
2017-09-04T08:45:33.995Z,34.17
2017-09-04T08:47:27.031Z,35.15
2017-09-04T08:48:27.088Z,33.62
2017-09-04T08:50:20.121Z,32.79
2017-09-04T08:51:20.175Z,33.48
2017-09-04T08:53:13.191Z,33.20
2017-09-04T08:54:13.267Z,31.51
2017-09-04T08:56:06.324Z,34.99
2017-09-04T08:57:06.362Z,35.08
2017-09-04T08:58:59.883Z,34.09
2017-09-04T08:59:59.961Z,34.56
2017-09-04T09:01:52.997Z,36.08
2017-09-04T09:02:53.054Z,35.83
2017-09-04T09:04:46.070Z,33.92
2017-09-04T09:05:46.145Z,34.52
2017-09-04T09:07:39.181Z,32.96
2017-09-04T09:08:39.237Z,34.58
2017-09-04T09:10:32.278Z,37.57
2017-09-04T09:11:32.331Z,41.33
2017-09-04T09:13:25.345Z,45.73
2017-09-04T09:14:25.420Z,46.51
2017-09-04T09:16:18.455Z,44.33
2017-09-04T09:17:18.507Z,45.08
2017-09-04T09:19:11.520Z,48.54
2017-09-04T09:20:11.592Z,48.03
2017-09-04T09:22:04.619Z,48.30
2017-09-04T09:23:04.673Z,51.49
2017-09-04T09:24:57.719Z,48.11
2017-09-04T09:25:57.751Z,51.37
2017-09-04T09:27:50.757Z,49.80
2017-09-04T09:28:50.829Z,50.35
2017-09-04T09:30:43.858Z,51.22
2017-09-04T09:31:43.907Z,53.25
2017-09-04T09:33:36.914Z,52.40
2017-09-04T09:34:36.984Z,50.84
2017-09-04T09:36:30.009Z,51.61
2017-09-04T09:37:30.059Z,51.89
2017-09-04T09:39:23.060Z,53.75
2017-09-04T09:40:23.132Z,51.34
2017-09-04T09:42:16.160Z,50.86
2017-09-04T09:43:16.209Z,51.73
2017-09-04T09:45:09.235Z,51.73
2017-09-04T09:46:09.285Z,51.65
2017-09-04T09:48:02.296Z,50.18
2017-09-04T09:49:02.364Z,50.28
2017-09-04T09:50:55.385Z,51.53
2017-09-04T09:51:55.435Z,50.47
2017-09-04T09:53:48.436Z,48.93
2017-09-04T09:54:48.506Z,49.73
2017-09-04T09:56:41.529Z,52.43
2017-09-04T09:57:41.579Z,49.90
2017-09-04T09:59:34.581Z,50.86
2017-09-04T10:00:34.651Z,51.05
2017-09-04T10:02:27.674Z,51.44
2017-09-04T10:03:27.725Z,49.02
2017-09-04T10:05:20.743Z,50.76
2017-09-04T10:06:20.793Z,51.05
2017-09-04T10:08:13.795Z,47.96
2017-09-04T10:09:13.870Z,50.47
2017-09-04T10:11:06.888Z,49.90
2017-09-04T10:12:06.938Z,48.93
2017-09-04T10:13:59.941Z,47.58
2017-09-04T10:15:00.012Z,48.23
2017-09-04T10:16:53.032Z,46.69
2017-09-04T10:17:53.082Z,47.85
2017-09-04T10:19:46.081Z,46.01
2017-09-04T10:20:46.150Z,44.85
2017-09-04T10:22:39.171Z,45.62
2017-09-04T10:23:39.218Z,46.01
2017-09-04T10:25:32.240Z,46.69
2017-09-04T10:26:32.289Z,47.07
2017-09-04T10:28:25.289Z,48.81
2017-09-04T10:29:25.359Z,49.19
2017-09-04T10:31:18.380Z,48.25
2017-09-04T10:32:18.428Z,50.09
2017-09-04T10:34:11.426Z,48.06
2017-09-04T10:35:11.497Z,47.77
2017-09-04T10:37:04.517Z,48.33
2017-09-04T10:38:04.577Z,47.65
2017-09-04T10:39:57.574Z,49.68
2017-09-04T10:40:57.641Z,51.61
2017-09-04T10:42:50.661Z,49.12
2017-09-04T10:43:50.709Z,48.74
2017-09-04T10:45:43.734Z,47.58
2017-09-04T10:46:43.782Z,46.71
2017-09-04T10:48:36.781Z,47.38
2017-09-04T10:49:36.851Z,48.93
2017-09-04T10:51:29.875Z,48.06
2017-09-04T10:52:29.920Z,47.09
2017-09-04T10:54:22.922Z,46.78
2017-09-04T10:55:22.990Z,47.27
2017-09-04T10:57:16.010Z,46.20
2017-09-04T10:58:16.056Z,46.81
2017-09-04T11:00:09.059Z,48.06
2017-09-04T11:01:09.127Z,47.19
2017-09-04T11:03:02.147Z,44.59
2017-09-04T11:04:02.197Z,47.70
2017-09-04T11:05:55.215Z,46.34
2017-09-04T11:06:55.263Z,46.64
2017-09-04T11:08:48.266Z,47.41
2017-09-04T11:09:48.335Z,47.12
2017-09-04T11:11:41.355Z,46.64
2017-09-04T11:12:41.402Z,49.92
2017-09-04T11:14:34.407Z,47.99
2017-09-04T11:15:34.481Z,44.90
2017-09-04T11:17:27.497Z,48.16
2017-09-04T11:18:27.543Z,45.55
2017-09-04T11:20:20.543Z,47.00
2017-09-04T11:21:20.613Z,46.71
2017-09-04T11:23:13.638Z,45.67
2017-09-04T11:24:13.680Z,45.38
2017-09-04T11:26:06.702Z,45.38
2017-09-04T11:27:06.750Z,44.22
2017-09-04T11:28:59.748Z,46.64
2017-09-04T11:29:59.818Z,44.22
2017-09-04T11:31:52.837Z,45.38
2017-09-04T11:32:52.887Z,43.16
2017-09-04T11:34:45.916Z,42.87
2017-09-04T11:35:45.955Z,43.16
2017-09-04T11:37:38.974Z,44.51
2017-09-04T11:38:39.022Z,44.90
2017-09-04T11:40:32.021Z,43.26
2017-09-04T11:41:32.089Z,43.24
2017-09-04T11:43:25.109Z,43.60
2017-09-04T11:44:25.158Z,42.36
2017-09-04T11:46:18.198Z,44.97
2017-09-04T11:47:18.231Z,46.03
2017-09-04T11:49:11.230Z,44.90
2017-09-04T11:50:11.306Z,47.41
2017-09-04T11:52:04.321Z,46.73
2017-09-04T11:53:04.370Z,46.64
2017-09-04T11:54:57.367Z,45.96
2017-09-04T11:55:57.436Z,44.90
2017-09-04T11:57:50.455Z,44.80
2017-09-04T11:58:50.503Z,45.18
2017-09-04T12:00:43.502Z,45.00
2017-09-04T12:01:43.571Z,44.90
2017-09-04T12:03:36.590Z,45.76
2017-09-04T12:04:36.648Z,45.86
2017-09-04T12:06:29.658Z,43.54
2017-09-04T12:07:29.706Z,43.35
2017-09-04T12:09:22.707Z,44.92
2017-09-04T12:10:22.775Z,42.89
2017-09-04T12:12:15.794Z,46.56
2017-09-04T12:13:15.843Z,43.66
2017-09-04T12:15:08.841Z,44.05
2017-09-04T12:16:08.909Z,45.89
2017-09-04T12:18:01.931Z,43.57
2017-09-04T12:19:01.979Z,44.24
2017-09-04T12:20:54.985Z,43.08
2017-09-04T12:21:55.054Z,41.35
2017-09-04T12:23:48.077Z,43.66
2017-09-04T12:24:48.125Z,41.44
2017-09-04T12:26:41.147Z,40.57
2017-09-04T12:27:41.193Z,41.05
2017-09-04T12:29:34.195Z,42.89
2017-09-04T12:30:34.263Z,42.12
2017-09-04T12:32:27.285Z,40.67
2017-09-04T12:33:27.333Z,41.83
2017-09-04T12:35:20.336Z,40.09
2017-09-04T12:36:20.406Z,40.38
2017-09-04T12:38:13.427Z,40.47
2017-09-04T12:39:13.474Z,39.97
2017-09-04T12:41:06.475Z,40.75
2017-09-04T12:42:06.543Z,41.63
2017-09-04T12:43:59.564Z,41.05
2017-09-04T12:44:59.613Z,40.65
2017-09-04T12:46:52.631Z,40.77
2017-09-04T12:47:52.680Z,39.97
2017-09-04T12:49:45.680Z,39.87
2017-09-04T12:50:45.747Z,41.71
2017-09-04T12:52:38.769Z,42.48
2017-09-04T12:53:38.817Z,41.52
2017-09-04T12:55:31.816Z,42.39
2017-09-04T12:56:31.883Z,43.16
2017-09-04T12:58:24.909Z,41.91
2017-09-04T12:59:24.957Z,42.58
2017-09-04T13:01:17.957Z,42.00
2017-09-04T13:02:18.024Z,43.45
2017-09-04T13:04:11.049Z,42.10
2017-09-04T13:05:11.099Z,40.65
2017-09-04T13:07:04.118Z,40.84
2017-09-04T13:08:04.197Z,42.48
2017-09-04T13:09:57.167Z,39.97
2017-09-04T13:10:57.234Z,39.59
2017-09-04T13:12:50.255Z,42.41
2017-09-04T13:13:50.302Z,40.84
2017-09-04T13:15:43.300Z,40.75
2017-09-04T13:16:43.370Z,41.61
2017-09-04T13:18:36.391Z,40.75
2017-09-04T13:19:36.435Z,40.84
2017-09-04T13:21:29.448Z,42.10
2017-09-04T13:22:29.504Z,42.48
2017-09-04T13:24:22.532Z,39.87
2017-09-04T13:25:22.578Z,38.71
2017-09-04T13:27:15.597Z,38.53
2017-09-04T13:28:15.646Z,39.11
2017-09-04T13:30:08.644Z,37.77
2017-09-04T13:31:08.719Z,37.38
2017-09-04T13:33:01.737Z,38.06
2017-09-04T13:34:01.781Z,36.90
2017-09-04T13:35:54.781Z,37.87
2017-09-04T13:36:54.847Z,38.64
2017-09-04T13:38:47.871Z,39.70
2017-09-04T13:39:47.918Z,40.28
2017-09-04T13:41:40.917Z,35.84
2017-09-04T13:42:40.986Z,36.03
2017-09-04T13:44:34.004Z,38.74
2017-09-04T13:45:34.054Z,39.04
2017-09-04T13:47:27.075Z,37.58
2017-09-04T13:48:27.122Z,38.66
2017-09-04T13:50:20.632Z,36.53
2017-09-04T13:51:20.723Z,35.47
2017-09-04T13:53:13.719Z,35.08
2017-09-04T13:54:13.766Z,37.02
2017-09-04T13:56:06.772Z,37.40
2017-09-04T13:57:06.843Z,35.45
2017-09-04T13:58:59.864Z,37.10
2017-09-04T13:59:59.926Z,35.94
2017-09-04T14:01:52.929Z,35.74
2017-09-04T14:02:52.998Z,39.12
2017-09-04T14:04:46.018Z,38.16
2017-09-04T14:05:46.067Z,40.47
2017-09-04T14:07:39.069Z,37.00
2017-09-04T14:08:39.132Z,37.10
2017-09-04T14:10:32.155Z,37.00
2017-09-04T14:11:32.202Z,36.32
2017-09-04T14:13:25.225Z,38.06
2017-09-04T14:14:25.296Z,37.19
2017-09-04T14:16:18.274Z,36.71
2017-09-04T14:17:18.342Z,37.87
2017-09-04T14:19:11.366Z,37.87
2017-09-04T14:20:11.437Z,36.71
2017-09-04T14:22:04.414Z,35.45
2017-09-04T14:23:04.484Z,37.00
2017-09-04T14:24:57.524Z,38.74
2017-09-04T14:25:57.551Z,37.29
2017-09-04T14:27:50.574Z,38.54
2017-09-04T14:28:50.652Z,37.10
2017-09-04T14:30:43.644Z,37.38
2017-09-04T14:31:43.691Z,37.48
2017-09-04T14:33:36.709Z,35.95
2017-09-04T14:34:36.758Z,38.56
2017-09-04T14:36:29.760Z,37.10
2017-09-04T14:37:29.829Z,39.14
2017-09-04T14:39:22.847Z,38.45
2017-09-04T14:40:22.946Z,39.22
2017-09-04T14:42:15.894Z,38.74
2017-09-04T14:43:15.962Z,39.61
2017-09-04T14:45:08.993Z,36.52
2017-09-04T14:46:09.040Z,39.32
2017-09-04T14:48:02.039Z,38.93
2017-09-04T14:49:02.106Z,38.06
2017-09-04T14:50:55.125Z,38.16
2017-09-04T14:51:55.173Z,40.09
2017-09-04T14:53:48.193Z,40.57
2017-09-04T14:54:48.241Z,40.77
2017-09-04T14:56:41.242Z,39.90
2017-09-04T14:57:41.310Z,39.99
2017-09-04T14:59:34.330Z,37.87
2017-09-04T15:00:34.383Z,39.03
2017-09-04T15:02:27.379Z,37.19
2017-09-04T15:03:27.448Z,38.93
2017-09-04T15:05:20.468Z,38.74
2017-09-04T15:06:20.516Z,37.87
2017-09-04T15:08:13.516Z,39.12
2017-09-04T15:09:13.586Z,39.61
2017-09-04T15:11:06.653Z,39.20
2017-09-04T15:12:06.662Z,39.49
2017-09-04T15:13:59.683Z,39.59
2017-09-04T15:14:59.728Z,40.26
2017-09-04T15:16:52.730Z,41.23
2017-09-04T15:17:52.798Z,41.13
2017-09-04T15:19:45.817Z,40.07
2017-09-04T15:20:45.865Z,39.49
2017-09-04T15:22:38.864Z,39.78
2017-09-04T15:23:38.934Z,38.33
2017-09-04T15:25:31.961Z,40.07
2017-09-04T15:26:32.003Z,40.65
2017-09-04T15:28:25.005Z,41.71
2017-09-04T15:29:25.071Z,41.33
2017-09-04T15:31:18.093Z,42.29
2017-09-04T15:32:18.141Z,40.84
2017-09-04T15:34:11.169Z,42.19
2017-09-04T15:35:11.221Z,40.94
2017-09-04T15:37:04.219Z,41.23
2017-09-04T15:38:04.290Z,40.84
2017-09-04T15:39:57.308Z,40.45
2017-09-04T15:40:57.355Z,40.26
2017-09-04T15:42:50.355Z,41.03
2017-09-04T15:43:50.424Z,41.52
2017-09-04T15:45:43.443Z,41.61
2017-09-04T15:46:43.491Z,42.48
2017-09-04T15:48:36.492Z,40.92
2017-09-04T15:49:36.561Z,41.78
2017-09-04T15:51:29.582Z,40.92
2017-09-04T15:52:29.629Z,41.50
2017-09-04T15:54:22.665Z,41.30
2017-09-04T15:55:22.713Z,41.69
2017-09-04T15:57:15.713Z,40.99
2017-09-04T15:58:15.781Z,42.44
2017-09-04T16:00:08.807Z,42.35
2017-09-04T16:01:08.855Z,42.44
2017-09-04T16:03:01.851Z,41.77
2017-09-04T16:04:01.921Z,41.96
2017-09-04T16:05:54.935Z,41.48
2017-09-04T16:06:54.983Z,42.93
2017-09-04T16:08:47.981Z,43.21
2017-09-04T16:09:48.050Z,42.93
2017-09-04T16:11:41.073Z,43.50
2017-09-04T16:12:41.119Z,43.02
2017-09-04T16:14:34.139Z,41.86
2017-09-04T16:15:34.185Z,42.35
2017-09-04T16:17:27.186Z,41.67
2017-09-04T16:18:27.254Z,43.02
2017-09-04T16:20:20.270Z,43.89
2017-09-04T16:21:20.319Z,42.80
2017-09-04T16:23:13.322Z,43.60
2017-09-04T16:24:13.389Z,43.60
2017-09-04T16:26:06.411Z,43.58
2017-09-04T16:27:06.461Z,44.15
2017-09-04T16:28:59.459Z,43.60
2017-09-04T16:29:59.537Z,43.67
2017-09-04T16:31:52.545Z,45.12
2017-09-04T16:32:52.594Z,45.53
2017-09-04T16:34:45.611Z,45.99
2017-09-04T16:35:45.659Z,45.12
2017-09-04T16:37:38.658Z,45.82
2017-09-04T16:38:38.725Z,45.41
2017-09-04T16:40:31.745Z,46.86
2017-09-04T16:41:31.792Z,46.86
2017-09-04T16:43:24.791Z,46.86
2017-09-04T16:44:24.860Z,47.63
2017-09-04T16:46:17.878Z,47.92
2017-09-04T16:47:17.925Z,47.63
2017-09-04T16:49:10.926Z,47.53
2017-09-04T16:50:10.994Z,47.53
2017-09-04T16:52:04.018Z,47.53
2017-09-04T16:53:04.066Z,47.24
2017-09-04T16:54:57.085Z,47.05
2017-09-04T16:55:57.132Z,48.40
2017-09-04T16:57:50.129Z,47.82
2017-09-04T16:58:50.197Z,48.21
2017-09-04T17:00:43.214Z,48.01
2017-09-04T17:01:43.264Z,48.01
2017-09-04T17:03:36.262Z,47.92
2017-09-04T17:04:36.329Z,47.82
2017-09-04T17:06:29.347Z,47.92
2017-09-04T17:07:29.394Z,48.21
2017-09-04T17:09:22.394Z,49.94
2017-09-04T17:10:22.461Z,48.86
2017-09-04T17:12:15.481Z,49.43
2017-09-04T17:13:15.529Z,49.46
2017-09-04T17:15:08.547Z,49.82
2017-09-04T17:16:08.596Z,48.18
2017-09-04T17:18:01.595Z,48.57
2017-09-04T17:19:01.665Z,49.05
2017-09-04T17:20:54.681Z,48.86
2017-09-04T17:21:54.729Z,49.73
2017-09-04T17:23:47.729Z,50.27
2017-09-04T17:24:47.796Z,51.26
2017-09-04T17:26:40.815Z,50.66
2017-09-04T17:27:40.862Z,50.40
2017-09-04T17:29:33.860Z,50.85
2017-09-04T17:30:33.926Z,50.27
2017-09-04T17:32:26.944Z,51.05
2017-09-04T17:33:26.991Z,51.34
2017-09-04T17:35:20.012Z,51.62
2017-09-04T17:36:20.058Z,51.79
2017-09-04T17:38:13.056Z,53.81
2017-09-04T17:39:13.124Z,52.95
2017-09-04T17:41:06.143Z,54.49
2017-09-04T17:42:06.188Z,54.78
2017-09-04T17:43:59.187Z,55.35
2017-09-04T17:44:59.253Z,55.45
2017-09-04T17:46:52.280Z,56.03
2017-09-04T17:47:52.318Z,55.90
2017-09-04T17:49:45.329Z,58.79
2017-09-04T17:50:45.396Z,58.89
2017-09-04T17:52:38.414Z,58.89
2017-09-04T17:53:38.460Z,58.95
2017-09-04T17:55:31.483Z,59.66
2017-09-04T17:56:31.531Z,59.72
2017-09-04T17:58:24.532Z,60.04
2017-09-04T17:59:24.599Z,59.44
2017-09-04T18:01:17.624Z,60.39
2017-09-04T18:02:17.663Z,60.59
2017-09-04T18:04:10.662Z,61.16
2017-09-04T18:05:10.729Z,61.94
2017-09-04T18:07:03.748Z,61.84
2017-09-04T18:08:03.793Z,62.23
2017-09-04T18:09:56.788Z,63.38
2017-09-04T18:10:56.856Z,63.86
2017-09-04T18:12:50.387Z,63.95
2017-09-04T18:13:50.428Z,64.25
2017-09-04T18:15:43.445Z,64.25
2017-09-04T18:16:43.492Z,63.95
2017-09-04T18:18:36.490Z,64.43
2017-09-04T18:19:36.555Z,64.53
2017-09-04T18:21:29.572Z,64.15
2017-09-04T18:22:29.620Z,64.25
2017-09-04T18:24:22.615Z,65.11
2017-09-04T18:25:22.683Z,65.01
2017-09-04T18:27:15.706Z,64.43
2017-09-04T18:28:15.746Z,65.59
2017-09-04T18:30:08.745Z,66.46
2017-09-04T18:31:08.812Z,65.78
2017-09-04T18:33:01.835Z,65.88
2017-09-04T18:34:01.884Z,65.59